Time;durP1;ratioP1;P1;durP2;ratioP2;P2;SDS_P1;SDS_P2;PMS_P1;PMS_P2;Temp;Humidity;BMP_temperature;BMP_pressure;BME280_temperature;BME280_humidity;BME280_pressure;Samples;Min_cycle;Max_cycle;Signal;HPM_P1;HPM_P2
2023/09/26 00:00:24;;;;;;;4.67;2.87;;;;;;;-145.18;100.00;46635.00;5012065;28;20125;-62
2023/09/26 00:02:53;;;;;;;5.30;2.80;;;;;;;-145.18;100.00;46660.41;5010902;28;20228;-62
2023/09/26 00:05:20;;;;;;;5.17;2.90;;;;;;;-145.18;100.00;46635.00;5012888;28;20628;-63
2023/09/26 00:07:45;;;;;;;5.00;3.40;;;;;;;-145.18;100.00;46660.41;5013152;28;20026;-62
2023/09/26 00:10:11;;;;;;;4.77;2.63;;;;;;;-145.18;100.00;46660.41;5013373;28;20030;-62
2023/09/26 00:12:37;;;;;;;6.93;2.30;;;;;;;-145.18;100.00;46635.00;5013334;28;20068;-62
2023/09/26 00:15:04;;;;;;;4.47;3.07;;;;;;;-145.18;100.00;46660.41;5011931;28;20409;-62
2023/09/26 00:17:29;;;;;;;5.57;4.03;;;;;;;-145.18;100.00;46660.41;5012743;28;20038;-62
2023/09/26 00:19:55;;;;;;;10.63;4.50;;;;;;;-145.18;100.00;46660.41;5013301;28;20080;-62
2023/09/26 00:22:20;;;;;;;7.37;4.00;;;;;;;-145.18;100.00;46660.41;5011680;28;20034;-62
2023/09/26 00:24:46;;;;;;;7.23;4.80;;;;;;;-145.18;100.00;46660.41;5013282;28;20030;-62
2023/09/26 00:27:11;;;;;;;5.67;4.00;;;;;;;-145.18;100.00;46660.41;5012938;28;20038;-62
2023/09/26 00:29:37;;;;;;;8.73;4.63;;;;;;;-145.18;100.00;46660.41;5012876;28;20041;-62
2023/09/26 00:32:03;;;;;;;7.63;3.67;;;;;;;-145.18;100.00;46660.41;5011129;28;20039;-62
2023/09/26 00:34:29;;;;;;;6.50;4.00;;;;;;;-145.18;100.00;46660.41;5011711;28;20569;-62
2023/09/26 00:36:55;;;;;;;9.23;5.17;;;;;;;-145.18;100.00;46660.41;5006634;28;20038;-62
2023/09/26 00:39:21;;;;;;;9.30;6.80;;;;;;;-145.18;100.00;46660.41;5012606;28;20057;-62
2023/09/26 00:41:46;;;;;;;13.37;6.63;;;;;;;-145.18;100.00;46660.41;5012902;28;20109;-62
2023/09/26 00:44:12;;;;;;;11.70;6.90;;;;;;;-145.18;100.00;46660.41;5011636;28;20037;-62
2023/09/26 00:46:38;;;;;;;31.10;3.67;;;;;;;-145.18;100.00;46660.41;5012856;28;20054;-62
2023/09/26 00:49:04;;;;;;;4.73;3.43;;;;;;;-145.18;100.00;46660.41;5012908;28;20065;-62
2023/09/26 00:51:31;;;;;;;9.70;5.63;;;;;;;-145.18;100.00;46660.41;5012709;28;20128;-62
2023/09/26 00:53:57;;;;;;;7.93;4.83;;;;;;;-145.18;100.00;46660.41;5010297;28;20029;-62
2023/09/26 00:56:24;;;;;;;9.60;6.37;;;;;;;-145.18;100.00;46660.41;5009502;28;20528;-62
2023/09/26 00:58:50;;;;;;;9.73;5.63;;;;;;;-145.18;100.00;46660.41;5012660;28;20021;-62
2023/09/26 01:01:17;;;;;;;13.13;6.63;;;;;;;-145.18;100.00;46660.41;5012679;28;20029;-62
2023/09/26 01:03:45;;;;;;;9.53;7.33;;;;;;;-145.18;100.00;46660.41;5011598;28;20033;-62
2023/09/26 01:06:10;;;;;;;13.33;8.70;;;;;;;-145.18;100.00;46658.44;5005158;28;20096;-62
2023/09/26 01:08:37;;;;;;;8.50;6.07;;;;;;;-145.18;100.00;46654.53;5012026;28;20026;-62
2023/09/26 01:11:03;;;;;;;8.70;5.87;;;;;;;-145.18;100.00;46660.41;5011093;28;20033;-62
2023/09/26 01:13:28;;;;;;;10.00;5.17;;;;;;;-145.18;100.00;46660.41;5011194;28;20045;-62
2023/09/26 01:15:53;;;;;;;7.87;5.63;;;;;;;-145.18;100.00;46660.41;5011737;28;20485;-62
2023/09/26 01:18:23;;;;;;;10.37;5.67;;;;;;;-145.18;100.00;46656.50;5011477;28;20029;-62
2023/09/26 01:20:49;;;;;;;10.20;6.27;;;;;;;-145.18;100.00;46660.41;5011965;28;20026;-62
2023/09/26 01:23:15;;;;;;;10.63;6.50;;;;;;;-145.18;100.00;46656.50;5012036;28;20367;-62
2023/09/26 01:25:42;;;;;;;11.13;6.37;;;;;;;-145.18;100.00;46660.41;5004658;28;20105;-62
2023/09/26 01:28:09;;;;;;;11.23;6.30;;;;;;;-145.18;100.00;46660.41;5008938;28;20079;-62
2023/09/26 01:30:38;;;;;;;11.90;6.00;;;;;;;-145.18;100.00;46660.41;5011804;28;20486;-62
2023/09/26 01:33:08;;;;;;;7.80;6.00;;;;;;;-145.18;100.00;46660.41;5010882;28;20054;-62
2023/09/26 01:35:34;;;;;;;12.07;7.30;;;;;;;-145.18;100.00;46658.44;5012024;28;20058;-62
2023/09/26 01:37:59;;;;;;;14.87;7.90;;;;;;;-145.18;100.00;46660.41;5011438;28;20034;-62
2023/09/26 01:40:25;;;;;;;12.87;7.60;;;;;;;-145.18;100.00;46660.41;5010041;28;20041;-62
2023/09/26 01:42:51;;;;;;;12.23;8.00;;;;;;;-145.18;100.00;46660.41;5011891;28;20030;-62
2023/09/26 01:45:16;;;;;;;14.27;8.10;;;;;;;-145.18;100.00;46658.44;5000356;28;20053;-62
2023/09/26 01:47:42;;;;;;;10.73;7.47;;;;;;;-145.18;100.00;46658.44;5006318;28;20030;-62
2023/09/26 01:50:08;;;;;;;10.50;7.43;;;;;;;-145.18;100.00;46660.41;5002475;28;20729;-63
2023/09/26 01:52:35;;;;;;;13.27;8.43;;;;;;;-145.18;100.00;46660.41;5006507;28;20030;-62
2023/09/26 01:55:03;;;;;;;14.93;8.90;;;;;;;-145.18;100.00;46660.41;5008880;28;20057;-62
2023/09/26 01:57:28;;;;;;;14.23;8.17;;;;;;;-145.18;100.00;46660.41;5011381;28;20371;-62
2023/09/26 01:59:54;;;;;;;13.60;8.23;;;;;;;-145.18;100.00;46660.41;5011874;28;20055;-62
2023/09/26 02:02:19;;;;;;;11.73;8.07;;;;;;;-145.18;100.00;46660.41;5011055;28;20452;-62
2023/09/26 02:04:44;;;;;;;15.57;8.70;;;;;;;-145.18;100.00;46660.41;5011541;28;20039;-62
2023/09/26 02:07:10;;;;;;;16.30;10.20;;;;;;;-145.18;100.00;46660.41;5011457;28;20026;-62
2023/09/26 02:09:35;;;;;;;16.00;9.60;;;;;;;-145.18;100.00;46660.41;5011749;28;20041;-62
2023/09/26 02:12:03;;;;;;;14.03;8.97;;;;;;;-145.18;100.00;46660.41;5011566;28;20505;-63
2023/09/26 02:14:29;;;;;;;15.57;9.00;;;;;;;-145.18;100.00;46660.41;5010955;28;20037;-62
2023/09/26 02:16:54;;;;;;;18.73;9.83;;;;;;;-145.18;100.00;46660.41;5011225;28;20036;-63
2023/09/26 02:19:20;;;;;;;13.97;9.47;;;;;;;-145.18;100.00;46660.41;5005035;28;20026;-62
2023/09/26 02:21:45;;;;;;;12.73;8.33;;;;;;;-145.18;100.00;46660.41;5011408;28;20042;-62
2023/09/26 02:24:10;;;;;;;14.33;8.47;;;;;;;-145.18;100.00;46660.41;5010198;28;20470;-62
2023/09/26 02:26:36;;;;;;;12.33;8.50;;;;;;;-145.18;100.00;46660.41;5003947;28;20484;-62
2023/09/26 02:29:01;;;;;;;13.57;8.20;;;;;;;-145.18;100.00;46660.41;5011673;28;20030;-62
2023/09/26 02:31:26;;;;;;;17.00;9.27;;;;;;;-145.18;100.00;46660.41;5014880;28;20037;-62
2023/09/26 02:33:53;;;;;;;13.37;8.80;;;;;;;-145.18;100.00;46660.41;5015024;28;20034;-62
2023/09/26 02:36:18;;;;;;;13.17;7.73;;;;;;;-145.18;100.00;46660.41;5013541;28;20410;-62
2023/09/26 02:38:44;;;;;;;10.53;7.23;;;;;;;-145.18;100.00;46660.41;5014193;28;20038;-62
2023/09/26 02:41:09;;;;;;;9.03;6.83;;;;;;;-145.18;100.00;46660.41;5015109;28;20185;-62
2023/09/26 02:43:35;;;;;;;16.10;7.60;;;;;;;-145.18;100.00;46660.41;5013077;28;20548;-62
2023/09/26 02:46:00;;;;;;;14.13;7.97;;;;;;;-145.18;100.00;46660.41;5013565;28;20040;-67
2023/09/26 02:48:26;;;;;;;12.37;8.20;;;;;;;-145.18;100.00;46660.41;5014212;28;20084;-67
2023/09/26 02:50:51;;;;;;;14.07;8.33;;;;;;;-145.18;100.00;46660.41;5014640;28;20037;-67
2023/09/26 02:53:17;;;;;;;18.17;9.43;;;;;;;-145.18;100.00;46660.41;5002873;28;20057;-67
2023/09/26 02:55:42;;;;;;;24.07;9.13;;;;;;;-145.18;100.00;46660.41;5005011;28;20065;-67
2023/09/26 02:58:08;;;;;;;14.33;9.27;;;;;;;-145.18;100.00;46660.41;5010494;28;20576;-67
2023/09/26 03:00:34;;;;;;;14.73;9.30;;;;;;;-145.18;100.00;46660.41;5014805;28;20112;-67
2023/09/26 03:03:00;;;;;;;17.90;9.77;;;;;;;-145.18;100.00;46660.41;5013479;28;20104;-67
2023/09/26 03:05:25;;;;;;;12.70;9.20;;;;;;;-145.18;100.00;46660.41;5013848;28;20029;-67
2023/09/26 03:07:51;;;;;;;19.17;9.00;;;;;;;-145.18;100.00;46660.41;5012967;28;20396;-67
2023/09/26 03:10:16;;;;;;;16.10;9.67;;;;;;;-145.18;100.00;46660.41;5014808;28;20038;-67
2023/09/26 03:12:45;;;;;;;14.87;9.93;;;;;;;-145.18;100.00;46660.41;5014141;28;20063;-67
2023/09/26 03:15:11;;;;;;;13.10;8.90;;;;;;;-145.18;100.00;46660.41;5014212;28;20038;-67
2023/09/26 03:17:36;;;;;;;13.53;9.57;;;;;;;-145.18;100.00;46660.41;5012560;28;20486;-67
2023/09/26 03:20:03;;;;;;;14.20;9.77;;;;;;;-145.18;100.00;46660.41;5014425;28;20037;-67
2023/09/26 03:22:29;;;;;;;18.10;10.40;;;;;;;-145.18;100.00;46660.41;5013062;28;20040;-67
2023/09/26 03:24:55;;;;;;;15.43;10.37;;;;;;;-145.18;100.00;46660.41;5014252;28;20109;-67
2023/09/26 03:27:21;;;;;;;16.97;10.40;;;;;;;-145.18;100.00;46660.41;4999641;28;20121;-67
2023/09/26 03:29:49;;;;;;;23.57;11.47;;;;;;;-145.18;100.00;46660.41;5014358;28;20141;-67
2023/09/26 03:32:14;;;;;;;20.47;11.13;;;;;;;-145.18;100.00;46660.41;5013844;28;20052;-67
2023/09/26 03:34:40;;;;;;;18.27;10.90;;;;;;;-145.18;100.00;46660.41;5013448;28;20057;-67
2023/09/26 03:37:05;;;;;;;19.30;12.03;;;;;;;-145.18;100.00;46660.41;5011862;28;20072;-67
2023/09/26 03:39:31;;;;;;;21.67;12.03;;;;;;;-145.18;100.00;46660.41;5013578;28;20045;-67
2023/09/26 03:41:56;;;;;;;25.40;12.73;;;;;;;-145.18;100.00;46660.41;5013740;28;20132;-67
2023/09/26 03:44:21;;;;;;;27.63;14.77;;;;;;;-145.18;100.00;46660.41;5013167;28;20037;-67
2023/09/26 03:46:47;;;;;;;24.60;14.27;;;;;;;-145.18;100.00;46660.41;5013414;28;20026;-67
2023/09/26 03:49:13;;;;;;;26.80;13.67;;;;;;;-145.18;100.00;46660.41;4993928;28;20057;-67
2023/09/26 03:51:38;;;;;;;29.17;13.33;;;;;;;-145.18;100.00;46660.41;5007257;28;20042;-67
2023/09/26 03:54:03;;;;;;;19.13;12.20;;;;;;;-145.18;100.00;46660.41;5002382;28;20056;-67
2023/09/26 03:56:29;;;;;;;20.50;12.57;;;;;;;-145.18;100.00;46658.44;5013332;28;20102;-67
2023/09/26 03:58:56;;;;;;;20.60;11.97;;;;;;;-145.18;100.00;46660.41;5011743;28;20105;-67
2023/09/26 04:01:21;;;;;;;21.03;11.10;;;;;;;-145.18;100.00;46660.41;5011212;28;20656;-67
2023/09/26 04:03:48;;;;;;;19.63;12.90;;;;;;;-145.18;100.00;46660.41;4996096;28;20121;-67
2023/09/26 04:06:14;;;;;;;18.53;10.67;;;;;;;-145.18;100.00;46660.41;5008757;28;20034;-67
2023/09/26 04:08:40;;;;;;;19.00;11.20;;;;;;;-145.18;100.00;46660.41;5002591;28;20112;-67
2023/09/26 04:11:05;;;;;;;16.70;11.63;;;;;;;-145.18;100.00;46660.41;5012126;28;20069;-67
2023/09/26 04:13:30;;;;;;;17.60;10.13;;;;;;;-145.18;100.00;46660.41;4995657;28;20038;-67
2023/09/26 04:15:56;;;;;;;13.97;9.90;;;;;;;-145.18;100.00;46660.41;5008723;28;20375;-67
2023/09/26 04:18:22;;;;;;;18.63;10.53;;;;;;;-145.18;100.00;46660.41;5011690;28;20113;-67
2023/09/26 04:20:49;;;;;;;19.63;11.03;;;;;;;-145.18;100.00;46660.41;5012017;28;20497;-67
2023/09/26 04:23:15;;;;;;;16.00;11.40;;;;;;;-145.18;100.00;46660.41;5009694;28;20037;-67
2023/09/26 04:25:40;;;;;;;17.57;11.10;;;;;;;-145.18;100.00;46660.41;5010609;28;20075;-67
2023/09/26 04:28:06;;;;;;;16.80;10.87;;;;;;;-145.18;100.00;46660.41;5010962;28;20033;-67
2023/09/26 04:30:36;;;;;;;18.47;10.87;;;;;;;-145.18;100.00;46660.41;5010933;28;20038;-67
2023/09/26 04:33:01;;;;;;;22.17;11.97;;;;;;;-145.18;100.00;46660.41;5012832;28;20498;-67
2023/09/26 04:35:27;;;;;;;22.27;11.17;;;;;;;-145.18;100.00;46660.41;5012447;28;20144;-67
2023/09/26 04:37:52;;;;;;;20.03;11.80;;;;;;;-145.18;100.00;46660.41;5012936;28;20030;-67
2023/09/26 04:40:18;;;;;;;17.03;11.40;;;;;;;-145.18;100.00;46660.41;5009786;28;20490;-67
2023/09/26 04:42:48;;;;;;;18.47;11.43;;;;;;;-145.18;100.00;46660.41;5007301;28;20030;-67
2023/09/26 04:45:14;;;;;;;17.80;11.60;;;;;;;-145.18;100.00;46660.41;5012278;28;20058;-67
2023/09/26 04:47:39;;;;;;;18.67;11.13;;;;;;;-145.18;100.00;46660.41;5013089;28;20111;-67
2023/09/26 04:50:06;;;;;;;18.00;11.63;;;;;;;-145.18;100.00;46660.41;5010072;28;20513;-67
2023/09/26 04:52:31;;;;;;;17.17;10.57;;;;;;;-145.18;100.00;46660.41;5001024;28;20042;-67
2023/09/26 04:54:57;;;;;;;18.97;10.83;;;;;;;-145.18;100.00;46660.41;5007191;28;20040;-67
2023/09/26 04:57:22;;;;;;;13.63;9.90;;;;;;;-145.18;100.00;46660.41;5010089;28;20478;-67
2023/09/26 04:59:47;;;;;;;17.77;9.50;;;;;;;-145.18;100.00;46660.41;4998500;28;20240;-67
2023/09/26 05:02:13;;;;;;;14.13;10.07;;;;;;;-145.18;100.00;46660.41;5010772;28;20117;-67
2023/09/26 05:04:41;;;;;;;14.13;9.70;;;;;;;-145.18;100.00;46660.41;5008651;28;20069;-67
2023/09/26 05:07:07;;;;;;;13.70;9.63;;;;;;;-145.18;100.00;46660.41;5005604;28;20038;-67
2023/09/26 05:09:33;;;;;;;12.50;9.53;;;;;;;-145.18;100.00;46660.41;5007412;28;20121;-67
2023/09/26 05:11:58;;;;;;;18.10;11.00;;;;;;;-145.18;100.00;46660.41;5010167;28;20042;-66
2023/09/26 05:14:23;;;;;;;17.33;10.73;;;;;;;-145.18;100.00;46660.41;5008968;28;20120;-67
2023/09/26 05:16:49;;;;;;;19.93;10.57;;;;;;;-145.18;100.00;46660.41;5010076;28;20046;-67
2023/09/26 05:19:15;;;;;;;17.00;10.87;;;;;;;-145.18;100.00;46660.41;5005830;28;20120;-66
2023/09/26 05:21:40;;;;;;;17.30;11.50;;;;;;;-145.18;100.00;46660.41;5010164;28;20434;-67
2023/09/26 05:24:07;;;;;;;20.77;10.93;;;;;;;-145.18;100.00;46660.41;5011447;28;20088;-66
2023/09/26 05:26:33;;;;;;;16.80;11.10;;;;;;;-145.18;100.00;46660.41;5010450;28;20117;-67
2023/09/26 05:28:58;;;;;;;18.60;10.77;;;;;;;-145.18;100.00;46660.41;5010409;28;20034;-67
2023/09/26 05:31:29;;;;;;;14.57;10.27;;;;;;;-145.18;100.00;46660.41;5009349;28;20482;-67
2023/09/26 05:33:56;;;;;;;19.03;10.07;;;;;;;-145.18;100.00;46660.41;5011639;28;20468;-67
2023/09/26 05:36:22;;;;;;;13.57;8.80;;;;;;;-145.18;100.00;46660.41;5011017;28;20054;-67
2023/09/26 05:38:47;;;;;;;10.60;7.87;;;;;;;-145.18;100.00;46660.41;5004483;28;20089;-67
2023/09/26 05:41:13;;;;;;;12.37;8.53;;;;;;;-145.18;100.00;46660.41;5004384;28;20043;-67
2023/09/26 05:43:38;;;;;;;11.53;7.27;;;;;;;-145.18;100.00;46660.41;5000913;28;20042;-67
2023/09/26 05:46:04;;;;;;;12.70;7.87;;;;;;;-145.18;100.00;46660.41;5005381;28;20048;-66
2023/09/26 05:48:29;;;;;;;11.73;8.10;;;;;;;-145.18;100.00;46660.41;4989706;28;20876;-67
2023/09/26 05:50:59;;;;;;;14.93;9.30;;;;;;;-145.18;100.00;46660.41;5007479;28;20109;-67
2023/09/26 05:53:25;;;;;;;14.73;9.77;;;;;;;-145.18;100.00;46660.41;4999160;28;20029;-67
2023/09/26 05:55:53;;;;;;;16.40;8.87;;;;;;;-145.18;100.00;46660.41;5004844;28;20037;-67
2023/09/26 05:58:19;;;;;;;16.80;8.97;;;;;;;-145.18;100.00;46660.41;5004741;28;20049;-66
2023/09/26 06:00:46;;;;;;;17.03;10.67;;;;;;;-145.18;100.00;46660.41;5001809;28;20034;-66
2023/09/26 06:03:12;;;;;;;12.97;9.90;;;;;;;-145.18;100.00;46660.41;5000650;28;20038;-67
2023/09/26 06:05:38;;;;;;;14.10;10.13;;;;;;;-145.18;100.00;46660.41;5020003;28;20045;-67
2023/09/26 06:08:04;;;;;;;16.00;10.30;;;;;;;-145.18;100.00;46631.09;5011421;28;20084;-66
2023/09/26 06:10:29;;;;;;;18.47;11.03;;;;;;;-145.18;100.00;46633.06;5011739;28;20524;-67
2023/09/26 06:12:55;;;;;;;16.37;10.90;;;;;;;-145.18;100.00;46633.06;5001570;28;20483;-67
2023/09/26 06:15:20;;;;;;;13.87;10.13;;;;;;;-145.18;100.00;46660.41;5011412;28;20061;-67
2023/09/26 06:17:45;;;;;;;16.47;10.37;;;;;;;-145.18;100.00;46631.09;5000806;28;20026;-67
2023/09/26 06:20:11;;;;;;;15.73;10.30;;;;;;;-145.18;100.00;46660.41;5005374;28;20065;-67
2023/09/26 06:22:37;;;;;;;15.23;10.93;;;;;;;-145.18;100.00;46629.13;5014577;28;20029;-67
2023/09/26 06:25:04;;;;;;;16.40;11.30;;;;;;;-145.18;100.00;46627.19;5010879;28;20064;-67
2023/09/26 06:27:33;;;;;;;14.83;10.90;;;;;;;-145.18;100.00;46629.13;5014423;28;20442;-67
2023/09/26 06:29:59;;;;;;;15.43;10.77;;;;;;;-145.18;100.00;46660.41;5013540;28;20044;-67
2023/09/26 06:32:24;;;;;;;16.07;10.83;;;;;;;-145.18;100.00;46660.41;5012739;28;20033;-67
2023/09/26 06:34:49;;;;;;;14.87;11.17;;;;;;;-145.18;100.00;46660.41;5013250;28;20050;-67
2023/09/26 06:37:15;;;;;;;20.07;10.90;;;;;;;-145.18;100.00;46625.22;5013566;28;20030;-67
2023/09/26 06:39:40;;;;;;;13.23;9.60;;;;;;;-145.18;100.00;46627.19;5012136;28;20038;-67
2023/09/26 06:42:06;;;;;;;15.23;10.67;;;;;;;-145.18;100.00;46623.28;5014965;28;20056;-67
2023/09/26 06:44:31;;;;;;;19.33;12.40;;;;;;;-145.18;100.00;46627.19;5012013;28;20441;-67
2023/09/26 06:46:57;;;;;;;20.03;13.23;;;;;;;-145.18;100.00;46629.13;5005998;28;20030;-67
2023/09/26 06:49:22;;;;;;;23.57;13.53;;;;;;;-145.18;100.00;46625.22;5014365;28;20442;-67
2023/09/26 06:51:47;;;;;;;21.87;13.10;;;;;;;-145.18;100.00;46660.41;5012467;28;20099;-67
2023/09/26 06:54:13;;;;;;;20.87;12.83;;;;;;;-145.18;100.00;46627.19;5014604;28;20489;-67
2023/09/26 06:56:38;;;;;;;21.43;13.60;;;;;;;-145.18;100.00;46625.22;5012840;28;20088;-67
2023/09/26 06:59:04;;;;;;;20.33;12.90;;;;;;;-145.18;100.00;46627.19;5013054;28;20120;-67
2023/09/26 07:01:30;;;;;;;24.33;13.87;;;;;;;-145.18;100.00;46625.22;5009290;28;20045;-67
2023/09/26 07:03:55;;;;;;;22.63;13.47;;;;;;;-145.18;100.00;46627.19;5009027;28;20128;-67
2023/09/26 07:06:20;;;;;;;23.97;13.93;;;;;;;-145.18;100.00;46625.22;5013114;28;20029;-67
2023/09/26 07:08:46;;;;;;;22.80;14.17;;;;;;;-145.18;100.00;46621.31;5005038;28;20030;-67
2023/09/26 07:11:12;;;;;;;21.97;12.37;;;;;;;-145.18;100.00;46625.22;5011639;28;20084;-67
2023/09/26 07:13:37;;;;;;;18.50;12.40;;;;;;;-145.18;100.00;46629.13;5012333;28;20033;-67
2023/09/26 07:16:05;;;;;;;19.67;11.63;;;;;;;-145.18;100.00;46633.06;5001398;28;20030;-67
2023/09/26 07:18:31;;;;;;;17.17;11.70;;;;;;;-145.18;100.00;46629.13;5009201;28;20036;-67
2023/09/26 07:20:59;;;;;;;15.63;11.17;;;;;;;-145.18;100.00;46627.19;5011613;28;20021;-67
2023/09/26 07:23:25;;;;;;;14.50;11.77;;;;;;;-145.18;100.00;46627.19;5007787;28;20041;-67
2023/09/26 07:25:50;;;;;;;17.20;12.30;;;;;;;-145.18;100.00;46629.13;5012842;28;20030;-62
2023/09/26 07:28:16;;;;;;;16.23;11.77;;;;;;;-145.18;100.00;46625.22;5012490;28;20398;-62
2023/09/26 07:30:44;;;;;;;21.17;13.20;;;;;;;-145.18;100.00;46627.19;5007830;28;20513;-62
2023/09/26 07:33:09;;;;;;;21.07;12.63;;;;;;;-145.18;100.00;46623.28;5012539;28;20038;-62
2023/09/26 07:35:35;;;;;;;23.70;13.63;;;;;;;-145.18;100.00;46625.22;5011948;28;20524;-63
2023/09/26 07:38:01;;;;;;;26.40;14.90;;;;;;;-145.18;100.00;46623.28;5012360;28;20042;-62
2023/09/26 07:40:26;;;;;;;26.57;15.43;;;;;;;-145.18;100.00;46623.28;5009452;28;20091;-62
2023/09/26 07:42:51;;;;;;;22.27;13.77;;;;;;;-145.18;100.00;46619.38;5012912;28;20423;-62
2023/09/26 07:45:17;;;;;;;25.53;14.53;;;;;;;-145.18;100.00;46619.38;5010946;28;20108;-62
2023/09/26 07:47:44;;;;;;;26.73;15.50;;;;;;;-145.18;100.00;46617.41;5009645;28;20465;-62
2023/09/26 07:50:10;;;;;;;24.43;15.50;;;;;;;-145.18;100.00;46619.38;5013067;28;20104;-62
2023/09/26 07:52:36;;;;;;;20.50;15.37;;;;;;;-145.18;100.00;46613.50;5010739;28;20056;-62
2023/09/26 07:55:02;;;;;;;23.47;14.43;;;;;;;-145.18;100.00;46617.41;5012349;28;20445;-63
2023/09/26 07:57:27;;;;;;;19.57;12.57;;;;;;;-145.18;100.00;46623.28;5008226;28;20030;-62
2023/09/26 07:59:53;;;;;;;18.97;13.37;;;;;;;-145.18;100.00;46619.38;5013079;28;20113;-62
2023/09/26 08:02:18;;;;;;;23.07;14.07;;;;;;;-145.18;100.00;46621.31;5010931;28;20501;-62
2023/09/26 08:04:44;;;;;;;19.90;12.73;;;;;;;-145.18;100.00;46627.19;5009399;28;20038;-62
2023/09/26 08:07:10;;;;;;;20.13;13.80;;;;;;;-145.18;100.00;46627.19;5011985;28;20029;-63
2023/09/26 08:09:35;;;;;;;25.00;15.07;;;;;;;-145.18;100.00;46627.19;5007948;28;20034;-62
2023/09/26 08:12:00;;;;;;;26.53;14.20;;;;;;;-145.18;100.00;46633.06;5012373;28;20038;-63
2023/09/26 08:14:26;;;;;;;22.80;13.83;;;;;;;-145.18;100.00;46633.06;5009741;28;20049;-63
2023/09/26 08:16:51;;;;;;;30.10;16.63;;;;;;;-145.18;100.00;46636.94;5011531;28;20402;-62
2023/09/26 08:19:17;;;;;;;22.70;14.10;;;;;;;-145.18;100.00;46633.06;5009387;28;20501;-63
2023/09/26 08:21:44;;;;;;;27.37;14.87;;;;;;;-145.18;100.00;46636.94;5002345;28;20088;-63
2023/09/26 08:24:10;;;;;;;22.43;13.07;;;;;;;-145.18;100.00;46636.94;5008889;28;20037;-62
2023/09/26 08:26:35;;;;;;;21.70;13.33;;;;;;;-145.18;100.00;46635.00;5012551;28;20034;-63
2023/09/26 08:29:00;;;;;;;16.37;12.30;;;;;;;-145.18;100.00;46638.91;4993763;28;20033;-63
2023/09/26 08:31:26;;;;;;;15.03;11.30;;;;;;;-145.18;100.00;46636.94;5002227;28;20080;-63
2023/09/26 08:33:51;;;;;;;14.33;10.90;;;;;;;-145.18;100.00;46638.91;5012650;28;20025;-63
2023/09/26 08:36:19;;;;;;;19.27;10.27;;;;;;;-145.18;100.00;46640.88;5001262;28;20058;-63
2023/09/26 08:38:49;;;;;;;16.37;11.50;;;;;;;-145.18;100.00;46633.06;5009718;28;20033;-63
2023/09/26 08:41:19;;;;;;;16.23;10.60;;;;;;;-145.18;100.00;46640.88;5012279;28;20571;-63
2023/09/26 08:43:45;;;;;;;13.40;11.00;;;;;;;-145.18;100.00;46636.94;5012279;28;20030;-63
2023/09/26 08:46:10;;;;;;;15.27;11.40;;;;;;;-145.18;100.00;46638.91;5001154;28;20068;-63
2023/09/26 08:48:37;;;;;;;16.73;10.53;;;;;;;-145.18;100.00;46640.88;5010201;28;20026;-63
2023/09/26 08:51:03;;;;;;;16.87;10.47;;;;;;;-145.18;100.00;46640.88;5012192;28;20761;-63
2023/09/26 08:53:29;;;;;;;16.87;11.17;;;;;;;-145.18;100.00;46638.91;5003053;28;20088;-63
2023/09/26 08:55:55;;;;;;;16.93;12.00;;;;;;;-145.18;100.00;46640.88;5008449;28;20021;-63
2023/09/26 08:58:21;;;;;;;16.90;11.70;;;;;;;-145.18;100.00;46648.69;5012299;28;20466;-63
2023/09/26 09:00:47;;;;;;;15.57;10.53;;;;;;;-145.18;100.00;46648.69;5008725;28;20102;-63
2023/09/26 09:03:13;;;;;;;27.20;13.17;;;;;;;-145.18;100.00;46650.63;5012047;28;20490;-63
2023/09/26 09:05:39;;;;;;;16.23;10.27;;;;;;;-145.18;100.00;46648.69;5008603;28;20033;-63
2023/09/26 09:08:05;;;;;;;20.97;12.00;;;;;;;-145.18;100.00;46652.59;5011881;28;20040;-63
2023/09/26 09:10:31;;;;;;;18.50;11.43;;;;;;;-145.18;100.00;46644.78;5010904;28;20060;-63
2023/09/26 09:13:03;;;;;;;14.90;11.00;;;;;;;-145.18;100.00;46648.69;5011495;28;20470;-63
2023/09/26 09:15:30;;;;;;;14.07;10.47;;;;;;;-145.18;100.00;46654.53;5011314;28;20034;-63
2023/09/26 09:17:57;;;;;;;15.20;10.27;;;;;;;-145.18;100.00;46646.72;5010775;28;20046;-63
2023/09/26 09:20:34;;;;;;;15.60;10.50;;;;;;;-145.18;100.00;46654.53;5002867;28;20035;-63
2023/09/26 09:23:04;;;;;;;15.00;9.83;;;;;;;-145.18;100.00;46654.53;5000096;28;20034;-63
2023/09/26 09:25:35;;;;;;;20.70;9.23;;;;;;;-145.18;100.00;46652.59;5003564;28;20108;-63
2023/09/26 09:28:01;;;;;;;15.30;9.00;;;;;;;-145.18;100.00;46664.31;5011285;28;20038;-63
2023/09/26 09:30:26;;;;;;;19.60;9.53;;;;;;;-145.18;100.00;46664.31;5011153;28;20041;-63
2023/09/26 09:32:52;;;;;;;12.10;9.03;;;;;;;-145.18;100.00;46666.25;5011729;28;20030;-63
2023/09/26 09:35:18;;;;;;;14.60;9.67;;;;;;;-145.18;100.00;46664.31;5009971;28;20058;-63
2023/09/26 09:37:45;;;;;;;12.43;9.20;;;;;;;-145.18;100.00;46660.41;5005099;28;20030;-64
2023/09/26 09:40:16;;;;;;;17.73;9.33;;;;;;;-145.18;100.00;46662.34;5001828;28;20034;-63
2023/09/26 09:42:42;;;;;;;11.87;9.33;;;;;;;-145.18;100.00;46656.50;5011676;28;20029;-63
2023/09/26 09:45:09;;;;;;;13.73;9.53;;;;;;;-145.18;100.00;46660.41;5003864;28;20193;-67
2023/09/26 09:47:39;;;;;;;13.30;9.53;;;;;;;-145.18;100.00;46662.34;5011907;28;20034;-67
2023/09/26 09:50:05;;;;;;;13.07;9.30;;;;;;;-145.18;100.00;46658.44;5011301;28;20456;-67
2023/09/26 09:52:33;;;;;;;17.97;9.07;;;;;;;-145.18;100.00;46660.41;5002485;28;20121;-67
2023/09/26 09:55:05;;;;;;;11.50;8.83;;;;;;;-145.18;100.00;46656.50;5008211;28;20037;-67
2023/09/26 09:57:35;;;;;;;16.80;9.40;;;;;;;-145.18;100.00;46664.31;5011130;28;20116;-67
2023/09/26 10:00:03;;;;;;;15.43;8.50;;;;;;;-145.18;100.00;46664.31;5011293;28;20084;-67
2023/09/26 10:02:28;;;;;;;18.53;8.57;;;;;;;-145.18;100.00;46668.22;5011348;28;20045;-67
2023/09/26 10:04:55;;;;;;;13.67;9.17;;;;;;;-145.18;100.00;46666.25;4995720;28;20402;-67
2023/09/26 10:07:24;;;;;;;13.57;9.53;;;;;;;-145.18;100.00;46664.31;5005459;28;20046;-67
2023/09/26 10:09:52;;;;;;;16.70;9.17;;;;;;;-145.18;100.00;46664.31;5009536;28;20022;-67
2023/09/26 10:12:19;;;;;;;13.57;8.70;;;;;;;-145.18;100.00;46668.22;5009668;28;20117;-67
2023/09/26 10:14:44;;;;;;;13.30;7.87;;;;;;;-145.18;100.00;46668.22;5011060;28;20033;-67
2023/09/26 10:17:10;;;;;;;15.30;8.33;;;;;;;-145.18;100.00;46674.06;5011194;28;20038;-67
2023/09/26 10:19:38;;;;;;;13.97;8.10;;;;;;;-145.18;100.00;46676.03;5010922;28;20034;-67
2023/09/26 10:22:13;;;;;;;13.13;8.27;;;;;;;-145.18;100.00;46681.88;5009016;28;20044;-67
2023/09/26 10:24:52;;;;;;;11.13;7.55;;;;;;;-145.18;100.00;46676.03;5007634;28;20498;-67
2023/09/26 10:27:30;;;;;;;11.27;7.33;;;;;;;-145.18;100.00;46679.94;5008093;28;20040;-67
2023/09/26 10:29:55;;;;;;;18.20;7.97;;;;;;;-145.18;100.00;46674.06;5010979;28;20033;-67
2023/09/26 10:32:34;;;;;;;11.27;7.67;;;;;;;-145.18;100.00;46658.44;5009509;28;20444;-67
2023/09/26 10:35:22;;;;;;;12.17;8.17;;;;;;;-145.18;100.00;46664.31;5008282;28;20081;-67
2023/09/26 10:37:52;;;;;;;11.70;8.40;;;;;;;-145.18;100.00;46650.63;5007664;28;20109;-67
2023/09/26 10:40:18;;;;;;;12.30;7.70;;;;;;;-145.18;100.00;46627.19;5008559;28;20026;-67
2023/09/26 10:42:46;;;;;;;10.87;7.83;;;;;;;-145.18;100.00;46554.91;5010160;28;20113;-67
2023/09/26 10:45:13;;;;;;;11.70;7.67;;;;;;;-145.18;100.00;46551.00;5008505;28;20023;-68
2023/09/26 10:47:40;;;;;;;14.20;8.70;;;;;;;-145.18;100.00;46541.25;5011055;28;20053;-67
2023/09/26 10:50:08;;;;;;;11.57;7.60;;;;;;;-145.18;100.00;46547.09;5012103;28;20030;-67
2023/09/26 10:52:34;;;;;;;13.03;7.97;;;;;;;-145.18;100.00;46547.09;5014284;28;20088;-67
2023/09/26 10:55:00;;;;;;;10.60;7.40;;;;;;;-145.18;100.00;46547.09;5013624;28;20029;-63